Time;durP1;ratioP1;P1;durP2;ratioP2;P2;SDS_P1;SDS_P2;PMS_P1;PMS_P2;Temp;Humidity;BMP_temperature;BMP_pressure;BME280_temperature;BME280_humidity;BME280_pressure;Samples;Min_cycle;Max_cycle;Signal;HPM_P1;HPM_P2
2022/03/19 00:01:13;;;;;;;87.60;35.07;;;;;5.80;98483.00;;;;8315897;28;20224;-70
2022/03/19 00:05:18;;;;;;;89.27;40.80;;;;;5.80;98482.00;;;;8314779;28;20624;-73
2022/03/19 00:09:21;;;;;;;82.37;39.07;;;;;5.70;98476.00;;;;8314051;28;20236;-72
2022/03/19 00:13:23;;;;;;;96.30;40.10;;;;;5.70;98481.00;;;;8313234;28;20239;-73
2022/03/19 00:17:26;;;;;;;85.80;37.63;;;;;5.70;98489.00;;;;8315205;28;20229;-78
2022/03/19 00:21:30;;;;;;;69.50;27.57;;;;;5.70;98480.00;;;;8314190;28;20224;-70
2022/03/19 00:25:34;;;;;;;80.00;34.87;;;;;5.70;98468.00;;;;8314504;28;20243;-71
2022/03/19 00:29:37;;;;;;;79.43;36.83;;;;;5.60;98462.00;;;;8311704;28;20266;-73
2022/03/19 00:33:39;;;;;;;77.73;34.33;;;;;5.50;98456.00;;;;8312898;28;20958;-71
2022/03/19 00:37:46;;;;;;;80.97;34.73;;;;;5.50;98447.00;;;;8314051;28;20228;-70
2022/03/19 00:41:49;;;;;;;88.70;39.20;;;;;5.40;98446.00;;;;8312857;28;20318;-74
2022/03/19 00:45:52;;;;;;;85.43;36.47;;;;;5.40;98447.00;;;;8313631;28;20303;-71
2022/03/19 00:49:55;;;;;;;88.20;36.53;;;;;5.30;98433.00;;;;8313988;28;20236;-76
2022/03/19 00:53:59;;;;;;;92.93;39.67;;;;;5.30;98439.00;;;;8316248;28;20243;-71
2022/03/19 00:58:02;;;;;;;83.50;34.17;;;;;5.20;98444.00;;;;8319776;28;21265;-74
2022/03/19 01:02:05;;;;;;;87.60;35.43;;;;;5.10;98438.00;;;;8320738;28;20240;-73
2022/03/19 01:06:08;;;;;;;90.60;38.30;;;;;5.10;98438.00;;;;8318636;28;20227;-73
2022/03/19 01:10:14;;;;;;;78.93;34.40;;;;;5.10;98440.00;;;;8320349;28;20295;-71
2022/03/19 01:14:17;;;;;;;74.90;32.67;;;;;5.00;98429.00;;;;8319209;28;20238;-73
2022/03/19 01:18:20;;;;;;;80.27;33.23;;;;;5.00;98427.00;;;;8313077;28;20633;-79
2022/03/19 01:22:23;;;;;;;85.73;33.50;;;;;5.00;98424.00;;;;8321396;28;20240;-69
2022/03/19 01:26:27;;;;;;;80.20;35.33;;;;;5.00;98417.00;;;;8319070;28;20233;-72
2022/03/19 01:30:30;;;;;;;80.67;34.13;;;;;5.00;98410.00;;;;8319049;28;20295;-71
2022/03/19 01:34:33;;;;;;;86.97;37.43;;;;;5.00;98412.00;;;;8320685;28;20742;-69
2022/03/19 01:38:37;;;;;;;85.40;37.53;;;;;5.00;98417.00;;;;8320399;28;20232;-72
2022/03/19 01:42:43;;;;;;;86.30;36.67;;;;;5.00;98417.00;;;;8319787;28;20646;-70
2022/03/19 01:46:57;;;;;;;76.37;33.90;;;;;4.90;98417.00;;;;8319309;28;20224;-72
2022/03/19 01:51:00;;;;;;;81.53;34.53;;;;;4.90;98416.00;;;;8319447;28;20258;-71
2022/03/19 01:55:05;;;;;;;84.70;33.53;;;;;4.80;98404.00;;;;8319925;28;20908;-71
2022/03/19 01:59:10;;;;;;;92.63;35.73;;;;;4.80;98401.00;;;;8317861;28;20229;-70
2022/03/19 02:03:13;;;;;;;93.57;37.37;;;;;4.80;98400.00;;;;8317617;28;20256;-69
2022/03/19 02:07:16;;;;;;;91.30;36.47;;;;;4.80;98403.00;;;;8307831;28;20311;-75
2022/03/19 02:11:20;;;;;;;81.70;34.10;;;;;4.70;98389.00;;;;8318604;28;20243;-70
2022/03/19 02:15:25;;;;;;;87.90;38.80;;;;;4.70;98395.00;;;;8318042;28;20233;-69
2022/03/19 02:19:28;;;;;;;80.27;33.40;;;;;4.70;98395.00;;;;8318966;28;20224;-77
2022/03/19 02:27:53;;;;;;;90.23;36.13;;;;;4.60;98374.00;;;;8318982;28;20227;-70
2022/03/19 02:31:58;;;;;;;81.93;34.57;;;;;4.50;98380.00;;;;8316855;28;20237;-72
2022/03/19 02:36:01;;;;;;;83.50;33.77;;;;;4.50;98379.00;;;;8315534;28;20248;-69
2022/03/19 02:40:08;;;;;;;85.90;35.10;;;;;4.50;98384.00;;;;8317926;28;20232;-69
2022/03/19 02:44:16;;;;;;;75.30;30.80;;;;;4.40;98368.00;;;;8316858;28;20290;-74
2022/03/19 02:48:19;;;;;;;87.60;34.63;;;;;4.40;98375.00;;;;8316038;28;20217;-76
2022/03/19 02:52:22;;;;;;;82.77;35.10;;;;;4.40;98365.00;;;;8316455;28;20221;-72
2022/03/19 02:56:27;;;;;;;85.70;34.93;;;;;4.50;98369.00;;;;8316507;28;20224;-71
2022/03/19 03:00:30;;;;;;;83.83;35.93;;;;;4.50;98356.00;;;;8316496;28;20254;-71
2022/03/19 03:04:33;;;;;;;80.77;34.83;;;;;4.60;98355.00;;;;8339013;22;20227;-70
2022/03/19 03:08:36;;;;;;;77.97;33.87;;;;;4.60;98355.00;;;;8313118;28;20225;-74
2022/03/19 03:12:40;;;;;;;76.87;34.10;;;;;4.70;98339.00;;;;8315337;28;20232;-71
2022/03/19 03:16:43;;;;;;;77.50;30.70;;;;;4.60;98345.00;;;;8325675;28;20242;-71
2022/03/19 03:20:46;;;;;;;60.77;25.33;;;;;4.50;98345.00;;;;8317365;28;20229;-70
2022/03/19 03:24:49;;;;;;;79.17;32.87;;;;;4.60;98341.00;;;;8320453;28;20583;-71
2022/03/19 03:28:53;;;;;;;80.80;33.30;;;;;4.50;98339.00;;;;8317789;28;20334;-76
2022/03/19 03:32:56;;;;;;;65.63;28.80;;;;;4.50;98335.00;;;;8309623;28;20240;-73
2022/03/19 03:36:59;;;;;;;68.93;29.90;;;;;4.40;98332.00;;;;8330502;28;20263;-70
2022/03/19 03:41:02;;;;;;;78.73;34.13;;;;;4.30;98326.00;;;;8331750;28;20786;-70
2022/03/19 03:45:08;;;;;;;83.27;34.77;;;;;4.20;98330.00;;;;8317749;28;20905;-71
2022/03/19 03:49:11;;;;;;;80.17;30.30;;;;;4.10;98324.00;;;;8315543;28;20233;-74
2022/03/19 03:53:14;;;;;;;91.60;36.33;;;;;4.00;98322.00;;;;8314236;28;20228;-71
2022/03/19 03:57:16;;;;;;;75.90;31.97;;;;;3.80;98315.00;;;;8315515;28;20228;-69
2022/03/19 04:01:21;;;;;;;94.87;34.73;;;;;3.80;98320.00;;;;8317563;28;20224;-76
2022/03/19 04:05:24;;;;;;;96.00;37.03;;;;;3.60;98314.00;;;;8307113;28;20231;-72
2022/03/19 04:09:27;;;;;;;91.77;35.07;;;;;3.30;98312.00;;;;8308869;28;20238;-71
2022/03/19 04:13:30;;;;;;;91.77;36.97;;;;;3.20;98312.00;;;;8310952;28;20224;-74
2022/03/19 04:17:34;;;;;;;88.00;37.27;;;;;3.20;98318.00;;;;8315330;28;20228;-68
2022/03/19 04:21:38;;;;;;;85.77;34.23;;;;;3.30;98319.00;;;;8305854;28;20242;-74
2022/03/19 04:25:41;;;;;;;74.97;31.50;;;;;3.30;98319.00;;;;8298944;28;20236;-73
2022/03/19 04:29:43;;;;;;;81.73;33.10;;;;;3.40;98303.00;;;;8307588;28;20235;-70
2022/03/19 04:33:48;;;;;;;86.50;34.30;;;;;3.40;98307.00;;;;8311812;28;20231;-74
2022/03/19 04:37:51;;;;;;;78.03;31.27;;;;;3.40;98310.00;;;;8296841;28;20582;-73
2022/03/19 04:41:54;;;;;;;75.33;29.87;;;;;3.40;98312.00;;;;8311379;28;20222;-70
2022/03/19 04:45:57;;;;;;;75.07;30.90;;;;;3.40;98314.00;;;;8317128;28;20579;-72
2022/03/19 04:50:04;;;;;;;77.10;31.53;;;;;3.40;98308.00;;;;8314172;28;20234;-68
2022/03/19 04:54:07;;;;;;;81.87;33.83;;;;;3.40;98309.00;;;;8298996;28;20230;-73
2022/03/19 04:58:11;;;;;;;84.73;33.30;;;;;3.30;98317.00;;;;8309387;28;20225;-72
2022/03/19 05:02:13;;;;;;;78.53;33.40;;;;;3.20;98303.00;;;;8302459;28;20711;-73
2022/03/19 05:06:18;;;;;;;83.27;33.93;;;;;3.20;98309.00;;;;8307766;28;20223;-70
2022/03/19 05:14:42;;;;;;;73.90;30.97;;;;;3.30;98306.00;;;;8308307;28;20314;-69
2022/03/19 05:18:45;;;;;;;76.07;31.33;;;;;3.30;98302.00;;;;8313484;28;20231;-72
2022/03/19 05:22:54;;;;;;;74.90;30.17;;;;;3.30;98305.00;;;;8311761;28;20239;-71
2022/03/19 05:26:57;;;;;;;82.20;32.33;;;;;3.30;98296.00;;;;8314076;28;20330;-69
2022/03/19 05:31:01;;;;;;;65.40;27.47;;;;;3.30;98302.00;;;;8308985;28;20232;-71
2022/03/19 05:35:06;;;;;;;87.30;32.80;;;;;3.40;98289.00;;;;8304936;28;20760;-71
2022/03/19 05:39:10;;;;;;;72.77;29.83;;;;;3.40;98293.00;;;;8314397;28;20301;-71
2022/03/19 05:43:13;;;;;;;76.53;30.93;;;;;3.40;98294.00;;;;8314828;28;20691;-71
2022/03/19 05:47:16;;;;;;;68.97;28.17;;;;;3.50;98301.00;;;;8312501;28;20610;-70
2022/03/19 05:51:19;;;;;;;70.80;30.03;;;;;3.60;98297.00;;;;8309301;28;20243;-71
2022/03/19 05:55:23;;;;;;;68.53;29.60;;;;;3.60;98292.00;;;;8314336;28;20660;-70
2022/03/19 05:59:26;;;;;;;68.97;29.30;;;;;3.70;98292.00;;;;8319241;28;20249;-72
2022/03/19 06:03:29;;;;;;;71.97;29.30;;;;;3.70;98287.00;;;;8312879;28;20235;-70
2022/03/19 06:07:32;;;;;;;73.73;30.30;;;;;3.80;98267.00;;;;8312091;28;20630;-70
2022/03/19 06:11:38;;;;;;;59.53;24.70;;;;;3.80;98267.00;;;;8318495;28;20224;-69
2022/03/19 06:15:41;;;;;;;63.67;27.27;;;;;4.10;98258.00;;;;8318346;28;20224;-70
2022/03/19 06:19:44;;;;;;;50.50;22.43;;;;;4.30;98247.00;;;;8315547;28;20224;-70
2022/03/19 06:23:47;;;;;;;56.77;23.37;;;;;4.50;98266.00;;;;8321320;28;20633;-70
2022/03/19 06:27:51;;;;;;;57.80;22.73;;;;;4.60;98251.00;;;;8317961;28;20230;-72
2022/03/19 06:31:54;;;;;;;55.17;22.57;;;;;4.70;98251.00;;;;8301589;28;20226;-69
2022/03/19 06:40:18;;;;;;;52.83;23.20;;;;;4.90;98254.00;;;;8308255;28;20228;-68
2022/03/19 06:44:22;;;;;;;62.77;24.10;;;;;4.90;98245.00;;;;8314185;28;20228;-71
2022/03/19 06:48:25;;;;;;;49.87;21.90;;;;;5.00;98246.00;;;;8313214;28;20231;-68
2022/03/19 06:52:29;;;;;;;65.90;24.37;;;;;5.00;98245.00;;;;8306362;28;20236;-69
2022/03/19 06:56:32;;;;;;;60.33;25.67;;;;;5.10;98254.00;;;;8316856;28;20314;-70
2022/03/19 07:00:37;;;;;;;56.00;26.53;;;;;5.20;98248.00;;;;8309486;28;20254;-73
2022/03/19 07:04:40;;;;;;;63.90;27.40;;;;;5.20;98259.00;;;;8304984;28;20264;-70
2022/03/19 07:08:43;;;;;;;64.20;27.83;;;;;5.30;98247.00;;;;8314519;28;20564;-75
2022/03/19 07:12:47;;;;;;;64.57;26.20;;;;;5.40;98258.00;;;;8310990;28;20232;-74
2022/03/19 07:16:51;;;;;;;62.63;27.17;;;;;5.40;98255.00;;;;8310661;28;20230;-70
2022/03/19 07:20:55;;;;;;;52.17;22.57;;;;;5.40;98254.00;;;;8309025;28;20320;-69
2022/03/19 07:24:57;;;;;;;57.00;24.07;;;;;5.50;98251.00;;;;8309645;28;20229;-75
2022/03/19 07:29:02;;;;;;;68.53;27.23;;;;;5.50;98260.00;;;;8306781;28;20706;-70
2022/03/19 07:33:06;;;;;;;65.40;27.97;;;;;5.60;98257.00;;;;8306483;28;20901;-69
2022/03/19 07:37:09;;;;;;;54.70;25.47;;;;;5.70;98251.00;;;;8311074;28;20594;-70
2022/03/19 07:45:33;;;;;;;60.23;26.93;;;;;5.80;98247.00;;;;8309403;28;20733;-71
2022/03/19 07:49:39;;;;;;;57.80;26.03;;;;;5.80;98249.00;;;;8306886;28;20229;-73
2022/03/19 07:53:42;;;;;;;56.33;25.20;;;;;5.90;98239.00;;;;8310277;28;20245;-72
2022/03/19 07:57:45;;;;;;;69.63;26.77;;;;;6.00;98227.00;;;;8305378;28;20233;-76
2022/03/19 08:01:49;;;;;;;58.43;26.57;;;;;6.10;98217.00;;;;8308116;28;20903;-72
2022/03/19 08:05:55;;;;;;;59.77;26.10;;;;;6.30;98217.00;;;;8306750;28;20229;-72
2022/03/19 08:09:58;;;;;;;62.60;26.63;;;;;6.50;98210.00;;;;8312029;28;20916;-72
2022/03/19 08:14:01;;;;;;;63.33;27.30;;;;;6.70;98194.00;;;;8312419;28;20228;-70
2022/03/19 08:18:05;;;;;;;56.83;25.93;;;;;6.90;98183.00;;;;8311306;28;20232;-70
2022/03/19 08:22:09;;;;;;;64.83;23.70;;;;;7.10;98177.00;;;;8309799;28;20596;-72
2022/03/19 08:26:15;;;;;;;52.13;25.47;;;;;7.20;98177.00;;;;8304733;28;20248;-71
2022/03/19 08:30:19;;;;;;;60.13;25.27;;;;;7.40;98171.00;;;;8310945;28;20233;-72
2022/03/19 08:34:23;;;;;;;50.93;24.80;;;;;7.50;98169.00;;;;8311673;28;20233;-71
2022/03/19 08:42:52;;;;;;;54.07;25.07;;;;;7.80;98158.00;;;;8313643;28;20248;-72
2022/03/19 08:46:55;;;;;;;60.47;25.10;;;;;8.00;98155.00;;;;8316338;28;20252;-72
2022/03/19 08:51:39;;;;;;;57.67;27.07;;;;;8.10;98160.00;;;;8304186;28;20986;-71
2022/03/19 08:55:25;;;;;;;53.83;26.33;;;;;8.20;98148.00;;;;8300548;28;20239;-70
2022/03/19 08:59:28;;;;;;;55.57;24.87;;;;;8.40;98139.00;;;;8315888;28;20241;-69
2022/03/19 09:03:32;;;;;;;53.50;24.07;;;;;8.60;98139.00;;;;8307665;28;20237;-72
2022/03/19 09:07:35;;;;;;;54.23;24.50;;;;;8.80;98135.00;;;;8314130;28;20233;-71
2022/03/19 09:11:40;;;;;;;50.60;23.13;;;;;8.80;98136.00;;;;8304739;28;20274;-70
2022/03/19 09:15:43;;;;;;;43.23;20.23;;;;;9.10;98136.00;;;;8306472;28;20228;-71
2022/03/19 09:19:46;;;;;;;33.87;16.63;;;;;9.30;98135.00;;;;8322268;28;20221;-69
2022/03/19 09:23:50;;;;;;;37.93;17.23;;;;;9.50;98131.00;;;;8319659;28;20229;-77
2022/03/19 09:27:54;;;;;;;40.27;20.07;;;;;10.00;98121.00;;;;8316561;28;20686;-70
2022/03/19 09:31:57;;;;;;;43.87;19.47;;;;;10.50;98118.00;;;;8317011;28;20229;-71
2022/03/19 09:36:01;;;;;;;40.25;18.27;;;;;11.10;98117.00;;;;8305552;28;20225;-81
2022/03/19 09:40:09;;;;;;;41.70;20.88;;;;;11.50;98104.00;;;;8305812;28;20472;-71
2022/03/19 09:44:16;;;;;;;39.97;17.90;;;;;12.00;98079.00;;;;8316396;28;20225;-78
2022/03/19 09:48:20;;;;;;;40.45;20.08;;;;;12.10;98086.00;;;;8317671;28;20670;-74
2022/03/19 09:52:28;;;;;;;43.08;19.58;;;;;12.40;98095.00;;;;8308056;28;20267;-71
2022/03/19 09:56:33;;;;;;;38.90;19.15;;;;;12.30;98082.00;;;;8309400;28;20786;-69
2022/03/19 10:00:38;;;;;;;48.15;18.00;;;;;12.10;98079.00;;;;8316375;28;20236;-71
2022/03/19 10:04:41;;;;;;;40.40;19.63;;;;;11.80;98075.00;;;;8310601;28;20308;-72
2022/03/19 10:08:54;;;;;;;40.00;18.98;;;;;11.40;98075.00;;;;8314636;28;20229;-71
2022/03/19 10:13:07;;;;;;;39.10;16.73;;;;;11.20;98066.00;;;;8316136;28;20256;-75
2022/03/19 10:17:11;;;;;;;40.63;20.33;;;;;11.40;98055.00;;;;8315771;28;20253;-75
2022/03/19 10:21:15;;;;;;;42.28;20.20;;;;;11.50;98054.00;;;;8312931;28;20278;-72
2022/03/19 10:25:18;;;;;;;40.78;19.15;;;;;11.10;98048.00;;;;8308194;28;20730;-71
2022/03/19 10:29:29;;;;;;;38.57;17.53;;;;;11.00;98040.00;;;;8312101;28;20540;-76
2022/03/19 10:33:34;;;;;;;38.47;16.83;;;;;10.50;98049.00;;;;8301290;28;20313;-70
2022/03/19 10:37:39;;;;;;;35.70;17.10;;;;;10.20;98025.00;;;;8309549;28;20228;-70
2022/03/19 10:41:43;;;;;;;37.22;14.82;;;;;10.30;98012.00;;;;8312908;28;20315;-71
2022/03/19 10:45:47;;;;;;;34.80;16.60;;;;;10.40;98015.00;;;;8312386;28;20260;-71
2022/03/19 10:49:52;;;;;;;34.00;15.68;;;;;10.90;98011.00;;;;8311141;28;20224;-73
2022/03/19 10:53:56;;;;;;;31.27;16.05;;;;;11.00;98009.00;;;;8300523;28;20262;-76
2022/03/19 10:58:00;;;;;;;32.67;16.42;;;;;11.00;97994.00;;;;8312160;28;20672;-74
2022/03/19 11:02:03;;;;;;;38.55;17.25;;;;;10.80;97991.00;;;;8295947;28;20265;-77
2022/03/19 11:06:09;;;;;;;39.10;18.83;;;;;10.60;97985.00;;;;8314220;28;20275;-74
2022/03/19 11:10:13;;;;;;;35.78;16.92;;;;;10.70;97974.00;;;;8308964;28;20226;-68
2022/03/19 11:14:23;;;;;;;36.58;17.13;;;;;11.10;97969.00;;;;8312266;28;20571;-71
2022/03/19 11:18:27;;;;;;;40.03;17.80;;;;;11.10;97964.00;;;;8314750;28;20681;-71
2022/03/19 11:22:39;;;;;;;31.08;16.15;;;;;11.20;97953.00;;;;8309166;28;20232;-72
2022/03/19 11:26:43;;;;;;;31.77;16.10;;;;;11.60;97944.00;;;;8302996;28;20236;-71
2022/03/19 11:31:01;;;;;;;28.52;15.77;;;;;11.80;97938.00;;;;8306491;28;20231;-72
2022/03/19 11:35:05;;;;;;;38.83;17.23;;;;;11.80;97929.00;;;;8301931;28;20316;-73
2022/03/19 11:39:09;;;;;;;27.75;15.77;;;;;11.70;97943.00;;;;8296682;28;20325;-72
2022/03/19 11:43:16;;;;;;;33.63;17.63;;;;;11.90;97925.00;;;;8308858;28;20229;-75
2022/03/19 11:47:20;;;;;;;34.53;15.50;;;;;12.40;97925.00;;;;8312241;28;20225;-76
2022/03/19 11:51:35;;;;;;;29.58;13.32;;;;;12.00;97924.00;;;;8300681;28;20283;-77
2022/03/19 11:55:40;;;;;;;32.15;16.73;;;;;11.70;97916.00;;;;8292089;28;20320;-75
2022/03/19 11:59:48;;;;;;;36.45;16.95;;;;;11.60;97903.00;;;;8302096;28;20303;-77
2022/03/19 12:04:11;;;;;;;34.33;17.63;;;;;11.40;97906.00;;;;8308904;28;20229;-77
2022/03/19 12:08:15;;;;;;;28.08;14.43;;;;;11.50;97905.00;;;;8311836;28;20336;-79
2022/03/19 12:12:26;;;;;;;31.85;15.50;;;;;11.80;97887.00;;;;8299615;28;20233;-76
2022/03/19 12:16:40;;;;;;;33.75;15.75;;;;;11.70;97883.00;;;;8305258;28;20229;-77
2022/03/19 12:20:43;;;;;;;36.25;18.48;;;;;11.60;97876.00;;;;8308844;28;20260;-76
2022/03/19 12:24:50;;;;;;;35.20;17.33;;;;;11.50;97874.00;;;;8307035;28;20217;-76
2022/03/19 12:29:04;;;;;;;33.53;16.65;;;;;11.30;97853.00;;;;8304716;28;20637;-77
2022/03/19 12:33:07;;;;;;;25.85;13.90;;;;;11.20;97860.00;;;;8301831;28;20245;-75
2022/03/19 12:37:10;;;;;;;27.30;14.37;;;;;11.10;97843.00;;;;8306278;28;20238;-76
2022/03/19 12:41:28;;;;;;;23.92;12.10;;;;;11.00;97855.00;;;;8301848;28;20622;-72
2022/03/19 12:45:52;;;;;;;30.42;17.75;;;;;10.80;97842.00;;;;8301991;28;20441;-76
2022/03/19 12:49:55;;;;;;;29.02;16.02;;;;;11.30;97842.00;;;;8304859;28;20869;-74
2022/03/19 12:53:59;;;;;;;27.25;13.45;;;;;11.40;97847.00;;;;8299387;28;20229;-73
2022/03/19 12:58:02;;;;;;;27.95;14.10;;;;;11.10;97834.00;;;;8306903;28;20225;-72
2022/03/19 13:02:07;;;;;;;32.00;16.35;;;;;10.90;97819.00;;;;8302047;28;20234;-72
2022/03/19 13:06:14;;;;;;;35.17;16.58;;;;;11.10;97801.00;;;;8294844;28;20225;-72
2022/03/19 13:10:17;;;;;;;29.58;14.95;;;;;11.50;97807.00;;;;8296564;28;20567;-71
2022/03/19 13:14:24;;;;;;;27.73;14.52;;;;;11.40;97809.00;;;;8300140;28;20249;-72
2022/03/19 13:18:30;;;;;;;32.78;15.93;;;;;11.30;97794.00;;;;8304520;28;20658;-71
2022/03/19 13:22:35;;;;;;;26.17;12.80;;;;;11.70;97808.00;;;;8308154;28;20978;-72
2022/03/19 13:26:39;;;;;;;37.33;18.13;;;;;11.70;97796.00;;;;8304593;28;20279;-70
2022/03/19 13:30:44;;;;;;;32.45;16.95;;;;;11.80;97805.00;;;;8308053;28;20229;-70
2022/03/19 13:34:50;;;;;;;35.47;18.00;;;;;11.80;97800.00;;;;8313198;28;20233;-71
2022/03/19 13:38:54;;;;;;;32.00;15.60;;;;;11.90;97794.00;;;;8310962;28;20233;-71
2022/03/19 13:42:57;;;;;;;26.33;14.50;;;;;11.80;97801.00;;;;8292639;28;20220;-73
2022/03/19 13:47:09;;;;;;;24.08;13.13;;;;;11.70;97794.00;;;;8312921;28;20641;-71
2022/03/19 13:51:13;;;;;;;25.17;13.05;;;;;11.50;97784.00;;;;8309325;28;20233;-71
2022/03/19 13:55:33;;;;;;;24.13;11.38;;;;;11.40;97791.00;;;;8309276;28;20829;-69
2022/03/19 13:59:36;;;;;;;21.75;11.38;;;;;11.30;97785.00;;;;8297222;28;20446;-68
2022/03/19 14:03:40;;;;;;;21.17;11.45;;;;;11.20;97788.00;;;;8317442;28;20230;-69
2022/03/19 14:07:46;;;;;;;19.23;10.35;;;;;11.30;97770.00;;;;8308775;28;20228;-68
2022/03/19 14:11:49;;;;;;;20.67;9.38;;;;;11.30;97768.00;;;;8307463;28;20291;-67
2022/03/19 14:15:55;;;;;;;18.55;9.63;;;;;11.40;97767.00;;;;8307349;28;20231;-69
2022/03/19 14:19:57;;;;;;;21.63;10.13;;;;;11.40;97768.00;;;;8318052;28;20224;-71
2022/03/19 14:24:02;;;;;;;16.75;7.82;;;;;11.10;97779.00;;;;8305445;28;20233;-70
2022/03/19 14:28:08;;;;;;;13.95;8.43;;;;;11.00;97759.00;;;;8312169;28;20754;-70
2022/03/19 14:32:11;;;;;;;12.10;7.10;;;;;11.00;97769.00;;;;8303049;28;20233;-69
2022/03/19 14:36:14;;;;;;;14.02;7.35;;;;;10.70;97755.00;;;;8293350;28;20234;-70
2022/03/19 14:40:18;;;;;;;13.25;7.25;;;;;10.60;97751.00;;;;8317040;28;20233;-71
2022/03/19 14:44:21;;;;;;;15.02;7.30;;;;;10.30;97754.00;;;;8323806;28;20889;-71
2022/03/19 14:48:26;;;;;;;14.73;7.22;;;;;10.10;97766.00;;;;8319309;28;20227;-70
2022/03/19 14:52:29;;;;;;;16.77;8.30;;;;;9.90;97747.00;;;;8312078;28;20232;-71
2022/03/19 14:56:36;;;;;;;12.83;7.60;;;;;9.70;97752.00;;;;8287263;28;20236;-71
2022/03/19 15:00:39;;;;;;;17.27;8.45;;;;;9.90;97735.00;;;;8305889;28;20237;-70
2022/03/19 15:04:42;;;;;;;14.73;8.80;;;;;9.90;97743.00;;;;8320019;28;20240;-71
2022/03/19 15:08:50;;;;;;;18.10;8.73;;;;;9.90;97746.00;;;;8310183;28;20655;-70
2022/03/19 15:12:55;;;;;;;20.40;11.07;;;;;9.90;97735.00;;;;8308098;28;20221;-70
2022/03/19 15:16:58;;;;;;;22.73;11.20;;;;;10.10;97741.00;;;;8340388;28;20836;-69
2022/03/19 15:21:03;;;;;;;20.40;11.02;;;;;10.30;97736.00;;;;8298531;28;20298;-70
2022/03/19 15:25:07;;;;;;;17.08;10.32;;;;;10.40;97726.00;;;;8299396;28;20217;-68
2022/03/19 15:29:11;;;;;;;22.52;11.98;;;;;10.60;97735.00;;;;8301700;28;20226;-69
2022/03/19 15:33:15;;;;;;;21.95;11.32;;;;;10.70;97733.00;;;;8309118;28;20244;-69
2022/03/19 15:37:19;;;;;;;23.98;11.70;;;;;10.70;97734.00;;;;8306559;28;20237;-70
2022/03/19 15:41:24;;;;;;;22.95;11.50;;;;;10.60;97727.00;;;;8322895;28;20241;-69
2022/03/19 15:45:41;;;;;;;25.27;12.13;;;;;10.40;97728.00;;;;8307723;28;20233;-67
2022/03/19 15:49:54;;;;;;;26.63;12.15;;;;;10.20;97724.00;;;;8293219;28;20218;-69
2022/03/19 15:53:57;;;;;;;24.70;11.77;;;;;10.00;97727.00;;;;8306703;28;20663;-68
2022/03/19 15:58:05;;;;;;;24.13;12.93;;;;;9.90;97724.00;;;;8284562;28;20248;-67
2022/03/19 16:02:12;;;;;;;24.40;12.27;;;;;10.00;97719.00;;;;8277686;28;20351;-68
2022/03/19 16:06:16;;;;;;;25.45;12.02;;;;;10.10;97713.00;;;;8303382;28;20252;-68
2022/03/19 16:10:19;;;;;;;20.05;9.73;;;;;10.10;97712.00;;;;8306218;28;20233;-67
2022/03/19 16:14:22;;;;;;;25.23;11.88;;;;;10.00;97716.00;;;;8307742;28;20233;-68
2022/03/19 16:18:27;;;;;;;26.20;11.38;;;;;9.80;97708.00;;;;8308191;28;20233;-67
2022/03/19 16:22:30;;;;;;;24.87;11.53;;;;;9.60;97699.00;;;;8305852;28;20254;-68
2022/03/19 16:26:33;;;;;;;22.43;10.63;;;;;9.40;97686.00;;;;8308261;28;20744;-68
2022/03/19 16:30:36;;;;;;;23.37;11.60;;;;;9.20;97695.00;;;;8310251;28;20229;-67
2022/03/19 16:34:40;;;;;;;22.30;12.35;;;;;9.00;97691.00;;;;8306303;28;20293;-68
2022/03/19 16:38:43;;;;;;;23.27;12.03;;;;;8.90;97687.00;;;;8294179;28;20709;-68
2022/03/19 16:42:46;;;;;;;29.50;12.23;;;;;8.70;97692.00;;;;8305873;28;20312;-68
2022/03/19 16:46:49;;;;;;;25.33;12.70;;;;;8.60;97704.00;;;;8304651;28;20638;-67
2022/03/19 16:50:54;;;;;;;23.93;11.90;;;;;8.50;97703.00;;;;8293715;28;20236;-67
2022/03/19 16:54:57;;;;;;;24.90;12.63;;;;;8.40;97701.00;;;;8304912;28;20230;-67
2022/03/19 16:59:00;;;;;;;26.20;13.27;;;;;8.20;97700.00;;;;8297845;28;20287;-68
2022/03/19 17:03:04;;;;;;;23.53;12.43;;;;;8.10;97703.00;;;;8296598;28;20234;-68
2022/03/19 17:07:08;;;;;;;22.60;10.77;;;;;8.10;97695.00;;;;8298285;28;20256;-69
2022/03/19 17:11:11;;;;;;;19.70;10.57;;;;;8.00;97699.00;;;;8297634;28;20729;-69
2022/03/19 17:15:14;;;;;;;26.57;12.93;;;;;8.00;97691.00;;;;8295066;28;20241;-70
2022/03/19 17:19:17;;;;;;;20.97;11.67;;;;;7.90;97704.00;;;;8296030;28;20231;-68
2022/03/19 17:23:21;;;;;;;25.53;11.40;;;;;7.90;97704.00;;;;8291864;28;20248;-68
2022/03/19 17:27:25;;;;;;;23.03;11.10;;;;;7.90;97695.00;;;;8304261;28;20228;-69
2022/03/19 17:31:28;;;;;;;23.77;11.73;;;;;7.90;97701.00;;;;8307719;28;20225;-67
2022/03/19 17:35:31;;;;;;;24.83;12.07;;;;;8.00;97691.00;;;;8307795;28;20234;-69
2022/03/19 17:39:36;;;;;;;25.17;11.83;;;;;8.00;97695.00;;;;8312839;28;20263;-70
2022/03/19 17:43:39;;;;;;;20.43;10.73;;;;;8.00;97700.00;;;;8307295;28;20226;-69
2022/03/19 17:47:43;;;;;;;23.47;11.10;;;;;8.00;97703.00;;;;8310831;28;20228;-68
2022/03/19 17:51:46;;;;;;;24.90;9.47;;;;;8.00;97693.00;;;;8303627;28;21953;-68
2022/03/19 17:55:50;;;;;;;18.87;10.83;;;;;7.90;97692.00;;;;8300078;28;20237;-69
2022/03/19 17:59:54;;;;;;;24.40;12.23;;;;;7.80;97702.00;;;;8317292;28;20237;-69
2022/03/19 18:03:57;;;;;;;27.47;12.97;;;;;7.80;97699.00;;;;8307372;28;20244;-69
2022/03/19 18:08:00;;;;;;;27.50;12.60;;;;;7.80;97695.00;;;;8313201;28;20228;-69
2022/03/19 18:12:08;;;;;;;27.43;13.17;;;;;7.80;97695.00;;;;8309648;28;20642;-70
2022/03/19 18:16:11;;;;;;;29.07;14.77;;;;;7.70;97690.00;;;;8314859;28;20229;-69
2022/03/19 18:20:16;;;;;;;25.60;14.43;;;;;7.50;97687.00;;;;8311918;28;20218;-70
2022/03/19 18:24:19;;;;;;;23.30;12.53;;;;;7.40;97691.00;;;;8303005;28;20251;-76
2022/03/19 18:28:23;;;;;;;25.97;12.43;;;;;7.40;97690.00;;;;8317355;28;20252;-70
2022/03/19 18:32:27;;;;;;;25.60;12.87;;;;;7.40;97688.00;;;;8302703;28;20228;-72
2022/03/19 18:36:31;;;;;;;26.27;12.93;;;;;7.30;97685.00;;;;8311065;28;20237;-66
2022/03/19 18:40:34;;;;;;;22.83;12.23;;;;;7.30;97686.00;;;;8311247;28;20222;-71
2022/03/19 18:44:38;;;;;;;26.20;12.50;;;;;7.30;97695.00;;;;8308541;28;20746;-69
2022/03/19 18:48:42;;;;;;;26.33;13.37;;;;;7.20;97687.00;;;;8301205;28;20217;-69
2022/03/19 18:52:45;;;;;;;24.73;12.40;;;;;7.20;97697.00;;;;8306032;28;20287;-69
2022/03/19 18:57:08;;;;;;;23.47;12.17;;;;;7.10;97688.00;;;;8304172;28;20253;-73
2022/03/19 19:01:13;;;;;;;24.87;11.13;;;;;7.00;97686.00;;;;8310442;28;20295;-68
2022/03/19 19:05:16;;;;;;;25.90;14.20;;;;;6.90;97692.00;;;;8314209;28;20233;-69
2022/03/19 19:09:19;;;;;;;28.13;13.27;;;;;6.90;97692.00;;;;8301453;28;20229;-71
2022/03/19 19:13:22;;;;;;;29.60;13.27;;;;;6.80;97684.00;;;;8304191;28;20244;-70
2022/03/19 19:17:26;;;;;;;28.73;11.13;;;;;6.70;97682.00;;;;8306048;28;20245;-69
2022/03/19 19:21:30;;;;;;;26.23;13.33;;;;;6.60;97680.00;;;;8311845;28;20222;-69
2022/03/19 19:25:34;;;;;;;24.20;12.47;;;;;6.50;97686.00;;;;8305866;28;20236;-71
2022/03/19 19:29:37;;;;;;;28.77;13.43;;;;;6.50;97681.00;;;;8306613;28;20233;-72
2022/03/19 19:33:41;;;;;;;29.33;13.87;;;;;6.40;97674.00;;;;8306736;28;20224;-70
2022/03/19 19:38:00;;;;;;;29.40;13.13;;;;;6.30;97674.00;;;;8306682;28;20234;-73
2022/03/19 19:42:03;;;;;;;28.63;12.97;;;;;6.30;97674.00;;;;8294274;28;20229;-69
2022/03/19 19:46:06;;;;;;;30.57;14.90;;;;;6.20;97666.00;;;;8306282;28;20578;-70
2022/03/19 19:50:12;;;;;;;26.23;13.90;;;;;6.10;97662.00;;;;8293716;28;20222;-69
2022/03/19 19:54:15;;;;;;;24.60;11.77;;;;;6.00;97658.00;;;;8300623;28;21345;-69
2022/03/19 19:58:17;;;;;;;29.83;12.93;;;;;6.00;97654.00;;;;8303605;28;21021;-70
2022/03/19 20:02:20;;;;;;;25.97;12.30;;;;;6.00;97650.00;;;;8312954;28;20224;-74
2022/03/19 20:07:38;;;;;;;24.23;11.63;;;;;6.00;97644.00;;;;8303091;28;20256;-75
2022/03/19 20:10:48;;;;;;;28.57;11.77;;;;;6.00;97659.00;;;;8309709;28;20229;-71
2022/03/19 20:14:52;;;;;;;22.83;11.93;;;;;6.00;97643.00;;;;8317408;28;20247;-68
2022/03/19 20:18:55;;;;;;;25.93;12.13;;;;;6.00;97641.00;;;;8291823;28;20233;-72
2022/03/19 20:23:00;;;;;;;24.03;9.87;;;;;6.00;97628.00;;;;8313188;28;20799;-72
2022/03/19 20:27:03;;;;;;;25.50;13.20;;;;;6.00;97631.00;;;;8307336;28;20232;-69